createdAt,value
2022-10-11T00:01:16.444Z,5.65
2022-10-11T00:04:04.750Z,7.28
2022-10-11T00:06:47.294Z,9.95
2022-10-11T00:09:27.561Z,5.20
2022-10-11T00:12:08.473Z,6.95
2022-10-11T00:14:49.854Z,8.35
2022-10-11T00:17:32.814Z,5.70
2022-10-11T00:20:14.564Z,4.82
2022-10-11T00:22:55.886Z,4.65
2022-10-11T00:25:39.316Z,5.15
2022-10-11T00:28:18.982Z,5.97
2022-10-11T00:30:59.091Z,6.57
2022-10-11T00:33:47.158Z,5.35
2022-10-11T00:36:35.007Z,6.15
2022-10-11T00:39:22.968Z,6.75
2022-10-11T00:42:15.965Z,4.75
2022-10-11T00:45:31.333Z,5.97
2022-10-11T00:48:31.823Z,5.50
2022-10-11T00:51:41.460Z,4.72
2022-10-11T00:54:33.862Z,4.35
2022-10-11T00:57:25.094Z,12.98
2022-10-11T01:00:15.098Z,7.15
2022-10-11T01:03:04.820Z,4.40
2022-10-11T01:05:53.086Z,5.25
2022-10-11T01:08:41.281Z,4.50
2022-10-11T01:11:30.777Z,9.23
2022-10-11T01:14:27.930Z,4.95
2022-10-11T01:17:40.724Z,6.45
2022-10-11T01:20:56.697Z,7.68
2022-10-11T01:24:11.109Z,6.97
2022-10-11T01:27:25.975Z,4.50
2022-10-11T01:30:30.193Z,5.85
2022-10-11T01:33:21.105Z,5.82
2022-10-11T01:36:31.577Z,10.95
2022-10-11T01:39:35.951Z,5.50
2022-10-11T01:42:25.310Z,11.05
2022-10-11T01:45:16.813Z,5.60
2022-10-11T01:48:11.333Z,4.65
2022-10-11T01:51:02.631Z,6.80
2022-10-11T01:53:59.151Z,7.18
2022-10-11T01:57:05.934Z,5.97
2022-10-11T02:00:16.623Z,3.70
2022-10-11T02:03:22.950Z,7.50
2022-10-11T02:06:11.002Z,6.10
2022-10-11T02:09:04.361Z,9.52
2022-10-11T02:11:48.667Z,11.10
2022-10-11T02:14:35.764Z,9.20
2022-10-11T02:17:25.593Z,7.45
2022-10-11T02:20:13.440Z,5.35
2022-10-11T02:23:03.657Z,8.68
2022-10-11T02:25:48.008Z,10.10
2022-10-11T02:28:34.736Z,6.72
2022-10-11T02:31:16.453Z,6.47
2022-10-11T02:34:23.469Z,7.32
2022-10-11T02:37:10.021Z,7.45
2022-10-11T02:40:00.677Z,9.75
2022-10-11T02:42:48.684Z,8.63
2022-10-11T02:45:36.347Z,11.63
2022-10-11T02:48:18.029Z,6.95
2022-10-11T02:50:59.562Z,6.60
2022-10-11T02:53:41.514Z,3.70
2022-10-11T02:56:21.431Z,8.00
2022-10-11T02:59:01.501Z,10.52
2022-10-11T03:01:41.095Z,5.70
2022-10-11T03:04:20.863Z,8.02
2022-10-11T03:07:00.704Z,6.63
2022-10-11T03:09:41.808Z,8.50
2022-10-11T03:12:22.893Z,6.93
2022-10-11T03:15:03.963Z,13.93
2022-10-11T03:17:46.010Z,17.00
2022-10-11T03:20:27.437Z,7.25
2022-10-11T03:23:07.720Z,8.15
2022-10-11T03:25:47.543Z,8.60
2022-10-11T03:28:28.361Z,7.22
2022-10-11T03:31:10.161Z,7.47
2022-10-11T03:33:50.170Z,7.40
2022-10-11T03:36:31.316Z,10.75
2022-10-11T03:39:12.553Z,6.75
2022-10-11T03:41:54.043Z,9.15
2022-10-11T03:44:35.545Z,6.82
2022-10-11T03:47:19.932Z,14.65
2022-10-11T03:50:00.175Z,13.10
2022-10-11T03:52:40.895Z,9.40
2022-10-11T03:55:22.492Z,11.23
2022-10-11T03:58:03.733Z,13.68
2022-10-11T04:00:43.971Z,15.10
2022-10-11T04:03:23.750Z,10.20
2022-10-11T04:06:05.896Z,12.10
2022-10-11T04:08:47.959Z,9.25
2022-10-11T04:11:28.164Z,16.23
2022-10-11T04:14:09.185Z,6.63
2022-10-11T04:16:49.282Z,6.72
2022-10-11T04:19:29.084Z,7.68
2022-10-11T04:22:09.263Z,13.38
2022-10-11T04:24:48.794Z,12.77
2022-10-11T04:27:29.607Z,8.70
2022-10-11T04:30:12.772Z,7.40
2022-10-11T04:32:53.257Z,14.40
2022-10-11T04:35:33.807Z,6.50
2022-10-11T04:38:14.313Z,11.27
2022-10-11T04:40:53.807Z,11.77
2022-10-11T04:43:36.973Z,12.20
2022-10-11T04:46:18.202Z,10.85
2022-10-11T04:48:59.815Z,10.35
2022-10-11T04:51:40.513Z,12.43
2022-10-11T04:54:22.035Z,11.52
2022-10-11T04:57:02.478Z,8.90
2022-10-11T04:59:47.874Z,10.88
2022-10-11T05:02:29.841Z,9.15
2022-10-11T05:05:11.370Z,15.27
2022-10-11T05:07:50.999Z,9.00
2022-10-11T05:10:31.931Z,6.95
2022-10-11T05:13:14.547Z,9.70
2022-10-11T05:15:57.183Z,8.60
2022-10-11T05:18:38.415Z,5.75
2022-10-11T05:21:22.435Z,7.93
2022-10-11T05:24:02.766Z,11.13
2022-10-11T05:26:42.472Z,8.38
2022-10-11T05:29:22.209Z,6.30
2022-10-11T05:32:02.038Z,9.27
2022-10-11T05:34:43.280Z,10.50
2022-10-11T05:37:25.193Z,3.95
2022-10-11T05:40:20.833Z,11.05
2022-10-11T05:43:01.153Z,10.73
2022-10-11T05:45:43.864Z,4.82
2022-10-11T05:48:26.840Z,10.60
2022-10-11T05:51:10.722Z,25.27
2022-10-11T05:53:53.206Z,5.68
2022-10-11T05:56:37.812Z,5.80
2022-10-11T05:59:19.576Z,12.55
2022-10-11T06:02:01.960Z,9.60
2022-10-11T06:04:43.971Z,8.25
2022-10-11T06:07:25.161Z,15.05
2022-10-11T06:10:06.730Z,14.13
2022-10-11T06:12:53.179Z,5.85
2022-10-11T06:15:51.223Z,11.20
2022-10-11T06:18:58.792Z,11.23
2022-10-11T06:21:56.374Z,11.88
2022-10-11T06:25:01.277Z,13.85
2022-10-11T06:28:08.873Z,13.15
2022-10-11T06:31:05.259Z,7.07
2022-10-11T06:34:09.273Z,11.00
2022-10-11T06:37:03.056Z,8.73
2022-10-11T06:40:00.723Z,10.35
2022-10-11T06:43:09.658Z,18.42
2022-10-11T06:46:08.496Z,7.20
2022-10-11T06:49:08.460Z,15.57
2022-10-11T06:52:18.239Z,7.10
2022-10-11T06:55:25.396Z,10.23
2022-10-11T06:58:34.654Z,9.10
2022-10-11T07:01:32.730Z,6.28
2022-10-11T07:04:28.206Z,8.07
2022-10-11T07:07:21.879Z,15.23
2022-10-11T07:10:16.365Z,6.80
2022-10-11T07:13:16.276Z,11.48
2022-10-11T07:16:29.089Z,12.43
2022-10-11T07:19:35.037Z,10.77
2022-10-11T07:22:36.965Z,5.07
2022-10-11T07:25:46.490Z,11.18
2022-10-11T07:28:58.817Z,6.13
2022-10-11T07:32:04.565Z,4.38
2022-10-11T07:35:02.057Z,12.18
2022-10-11T07:38:08.466Z,4.95
2022-10-11T07:41:06.129Z,8.48
2022-10-11T07:43:59.538Z,6.05
2022-10-11T07:46:54.116Z,6.25
2022-10-11T07:49:49.094Z,7.85
2022-10-11T07:52:46.405Z,7.53
2022-10-11T07:55:45.361Z,3.50
2022-10-11T07:58:42.590Z,6.10
2022-10-11T08:01:38.897Z,8.10
2022-10-11T08:04:36.352Z,6.18
2022-10-11T08:07:36.755Z,6.60
2022-10-11T08:10:30.041Z,6.68
2022-10-11T08:13:26.193Z,8.02
2022-10-11T08:16:20.590Z,10.25
2022-10-11T08:19:19.226Z,4.05
2022-10-11T08:22:29.176Z,6.43
2022-10-11T08:25:44.322Z,3.88
2022-10-11T08:28:41.910Z,3.63
2022-10-11T08:31:44.908Z,4.32
2022-10-11T08:34:45.284Z,6.82
2022-10-11T08:37:42.884Z,9.23
2022-10-11T08:40:56.583Z,5.57
2022-10-11T08:44:02.777Z,3.97
2022-10-11T08:47:04.401Z,5.80
2022-10-11T08:50:01.157Z,7.10
2022-10-11T08:52:59.458Z,6.47
2022-10-11T08:55:55.622Z,4.35
2022-10-11T08:59:00.819Z,6.88
2022-10-11T09:02:02.119Z,6.93
2022-10-11T09:04:53.791Z,6.90
2022-10-11T09:07:54.895Z,3.33
2022-10-11T09:10:59.216Z,6.13
2022-10-11T09:14:21.503Z,5.65
2022-10-11T09:17:30.975Z,4.90
2022-10-11T09:20:30.323Z,4.78
2022-10-11T09:23:44.444Z,10.23
2022-10-11T09:26:42.182Z,4.13
2022-10-11T09:30:05.611Z,12.90
2022-10-11T09:33:19.930Z,10.05
2022-10-11T09:36:17.560Z,11.90
2022-10-11T09:39:35.485Z,2.63
2022-10-11T09:42:23.858Z,6.40
2022-10-11T09:45:18.978Z,4.45
2022-10-11T09:48:08.001Z,7.55
2022-10-11T09:51:05.249Z,5.50
2022-10-11T09:54:01.931Z,5.30
2022-10-11T09:56:50.021Z,4.95
2022-10-11T09:59:37.901Z,3.40
2022-10-11T10:02:28.639Z,5.80
2022-10-11T10:05:20.509Z,8.75
2022-10-11T10:08:10.788Z,4.95
2022-10-11T10:11:00.615Z,7.82
2022-10-11T10:13:55.975Z,9.50
2022-10-11T10:16:44.090Z,10.48
2022-10-11T10:19:58.840Z,10.85
2022-10-11T10:22:47.107Z,5.22
2022-10-11T10:25:43.271Z,4.05
2022-10-11T10:28:31.405Z,6.28
2022-10-11T10:31:49.474Z,4.35
2022-10-11T10:35:02.370Z,3.53
2022-10-11T10:38:09.982Z,5.55
2022-10-11T10:41:03.295Z,5.18
2022-10-11T10:43:59.466Z,9.43
2022-10-11T10:47:08.250Z,12.98
2022-10-11T10:50:23.447Z,10.77
2022-10-11T10:53:37.822Z,2.38
2022-10-11T10:56:39.136Z,3.63
2022-10-11T11:00:00.617Z,4.88
2022-10-11T11:02:59.900Z,5.03
2022-10-11T11:06:17.339Z,2.10
2022-10-11T11:09:23.959Z,3.58
2022-10-11T11:12:36.380Z,5.72
2022-10-11T11:15:35.575Z,3.60
2022-10-11T11:18:42.238Z,2.17
2022-10-11T11:21:33.753Z,4.75
2022-10-11T11:24:22.773Z,3.40
2022-10-11T11:27:13.420Z,3.22
2022-10-11T11:30:16.456Z,8.80
2022-10-11T11:33:23.239Z,2.75
2022-10-11T11:36:23.778Z,6.82
2022-10-11T11:39:18.196Z,6.32
2022-10-11T11:42:13.869Z,3.28
2022-10-11T11:45:28.150Z,4.75
2022-10-11T11:48:20.619Z,6.57
2022-10-11T11:51:17.711Z,10.38
2022-10-11T11:54:28.484Z,3.25
2022-10-11T11:57:35.856Z,4.10
2022-10-11T12:00:29.786Z,4.38
2022-10-11T12:03:25.544Z,3.97
2022-10-11T12:06:28.528Z,7.97
2022-10-11T12:09:16.791Z,3.88
2022-10-11T12:12:29.059Z,6.13
2022-10-11T12:15:26.034Z,3.75
2022-10-11T12:18:19.213Z,4.00
2022-10-11T12:21:32.790Z,4.28
2022-10-11T12:24:20.594Z,4.90
2022-10-11T12:27:39.587Z,5.55
2022-10-11T12:30:48.371Z,2.50
2022-10-11T12:33:36.103Z,8.18
2022-10-11T12:36:35.780Z,4.03
2022-10-11T12:39:23.769Z,3.25
2022-10-11T12:42:27.874Z,4.22
2022-10-11T12:45:18.634Z,10.02
2022-10-11T12:48:51.419Z,6.47
2022-10-11T12:52:13.430Z,7.30
2022-10-11T12:55:06.506Z,5.22
2022-10-11T12:58:16.045Z,3.25
2022-10-11T13:01:03.925Z,9.30
2022-10-11T13:03:58.177Z,11.05
2022-10-11T13:07:12.719Z,5.25
2022-10-11T13:10:00.635Z,3.42
2022-10-11T13:12:49.043Z,4.65
2022-10-11T13:15:37.174Z,4.63
2022-10-11T13:18:26.447Z,4.20
2022-10-11T13:21:23.143Z,8.05
2022-10-11T13:24:17.827Z,7.80
2022-10-11T13:27:06.789Z,6.20
2022-10-11T13:30:00.062Z,4.80
2022-10-11T13:32:48.000Z,3.90
2022-10-11T13:35:38.839Z,6.63
2022-10-11T13:38:35.282Z,9.18
2022-10-11T13:44:12.340Z,4.63
2022-10-11T13:47:00.458Z,4.18
2022-10-11T13:50:00.507Z,7.93
2022-10-11T13:53:01.439Z,3.35
2022-10-11T13:55:59.355Z,3.63
2022-10-11T13:58:55.592Z,5.55
2022-10-11T14:01:49.318Z,7.75
2022-10-11T14:04:43.422Z,8.32
2022-10-11T14:07:38.727Z,4.40
2022-10-11T14:10:27.087Z,14.85
2022-10-11T14:13:34.159Z,10.50
2022-10-11T14:16:22.747Z,12.18
2022-10-11T14:19:23.282Z,5.85
2022-10-11T14:22:18.447Z,10.15
2022-10-11T14:25:06.332Z,6.40
2022-10-11T14:27:57.609Z,9.95
2022-10-11T14:30:45.703Z,4.90
2022-10-11T14:33:33.798Z,11.32
2022-10-11T14:36:23.067Z,10.52
2022-10-11T14:39:19.807Z,12.60
2022-10-11T14:42:07.949Z,14.00
2022-10-11T14:44:56.240Z,12.23
2022-10-11T14:47:44.309Z,10.93
2022-10-11T14:51:03.181Z,7.68
2022-10-11T14:53:51.695Z,11.02
2022-10-11T14:56:39.401Z,8.15
2022-10-11T14:59:31.884Z,11.77
2022-10-11T15:02:19.650Z,10.93
2022-10-11T15:05:08.089Z,9.55
2022-10-11T15:07:55.651Z,14.88
2022-10-11T15:10:43.215Z,10.10
2022-10-11T15:13:31.075Z,9.85
2022-10-11T15:16:21.249Z,10.35
2022-10-11T15:19:21.578Z,7.68
2022-10-11T15:22:09.128Z,10.05
2022-10-11T15:24:57.511Z,9.35
2022-10-11T15:27:45.589Z,10.63
2022-10-11T15:30:41.129Z,11.43
2022-10-11T15:33:29.642Z,12.48
2022-10-11T15:36:22.532Z,13.43
2022-10-11T15:39:23.186Z,8.98
2022-10-11T15:42:11.260Z,12.32
2022-10-11T15:44:59.014Z,12.60
2022-10-11T15:47:47.323Z,13.73
2022-10-11T15:50:37.545Z,13.95
2022-10-11T15:53:30.184Z,10.73
2022-10-11T15:56:19.400Z,9.20
2022-10-11T15:59:07.203Z,7.47
2022-10-11T16:01:55.025Z,12.43
2022-10-11T16:04:44.492Z,3.95
2022-10-11T16:07:32.084Z,9.98
2022-10-11T16:10:20.886Z,11.70
2022-10-11T16:13:09.645Z,9.43
2022-10-11T16:15:57.808Z,13.98
2022-10-11T16:18:45.488Z,9.30
2022-10-11T16:21:33.475Z,8.60
2022-10-11T16:24:21.568Z,13.32
2022-10-11T16:27:09.161Z,12.18
2022-10-11T16:29:57.160Z,8.27
2022-10-11T16:32:45.447Z,4.90
2022-10-11T16:35:33.123Z,12.45
2022-10-11T16:38:21.147Z,17.15
2022-10-11T16:41:08.802Z,9.90
2022-10-11T16:43:57.168Z,10.13
2022-10-11T16:46:48.690Z,9.23
2022-10-11T16:49:37.892Z,5.90
2022-10-11T16:52:26.723Z,10.07
2022-10-11T16:55:14.644Z,10.27
2022-10-11T16:58:02.586Z,12.82
2022-10-11T17:00:50.714Z,9.48
2022-10-11T17:03:39.037Z,13.82
2022-10-11T17:06:28.066Z,10.95
2022-10-11T17:09:16.119Z,13.00
2022-10-11T17:12:04.171Z,12.32
2022-10-11T17:14:52.091Z,10.25
2022-10-11T17:17:40.099Z,13.15
2022-10-11T17:20:28.157Z,11.93
2022-10-11T17:23:16.046Z,9.65
2022-10-11T17:26:10.987Z,10.68
2022-10-11T17:29:00.710Z,9.77
2022-10-11T17:31:49.518Z,12.65
2022-10-11T17:34:37.713Z,7.22
2022-10-11T17:37:28.308Z,10.30
2022-10-11T17:40:16.191Z,6.15
2022-10-11T17:43:04.585Z,7.13
2022-10-11T17:46:09.408Z,6.60
2022-10-11T17:48:57.408Z,12.07
2022-10-11T17:51:45.937Z,12.10
2022-10-11T17:54:33.692Z,15.73
2022-10-11T17:57:22.063Z,7.28
2022-10-11T18:00:10.371Z,7.78
2022-10-11T18:02:58.597Z,11.05
2022-10-11T18:05:46.444Z,10.63
2022-10-11T18:08:39.953Z,7.72
2022-10-11T18:11:29.620Z,9.65
2022-10-11T18:14:17.202Z,12.73
2022-10-11T18:17:05.057Z,17.08
2022-10-11T18:19:53.249Z,10.52
2022-10-11T18:22:40.805Z,19.45
2022-10-11T18:25:28.993Z,16.00
2022-10-11T18:28:19.909Z,10.35
2022-10-11T18:31:12.938Z,11.65
2022-10-11T18:34:06.036Z,8.70
2022-10-11T18:36:53.637Z,6.35
2022-10-11T18:39:41.451Z,13.07
2022-10-11T18:42:29.349Z,14.07
2022-10-11T18:45:17.472Z,14.35
2022-10-11T18:48:05.489Z,12.70
2022-10-11T18:51:09.660Z,6.05
2022-10-11T18:53:58.879Z,16.13
2022-10-11T18:56:46.996Z,10.35
2022-10-11T18:59:34.826Z,12.80
2022-10-11T19:02:23.393Z,9.48
2022-10-11T19:05:11.238Z,7.85
2022-10-11T19:07:59.503Z,8.63
2022-10-11T19:10:47.099Z,7.35
2022-10-11T19:13:35.768Z,10.07
2022-10-11T19:16:25.027Z,10.73
2022-10-11T19:19:13.650Z,10.02
2022-10-11T19:22:03.311Z,11.77
2022-10-11T19:24:51.446Z,10.80
2022-10-11T19:27:39.532Z,8.80
2022-10-11T19:30:27.241Z,10.25
2022-10-11T19:33:15.071Z,9.88
2022-10-11T19:36:05.483Z,11.85
2022-10-11T19:38:56.844Z,23.27
2022-10-11T19:41:45.058Z,19.85
2022-10-11T19:44:37.209Z,15.85
2022-10-11T19:47:27.485Z,17.35
2022-10-11T19:50:15.133Z,18.88
2022-10-11T19:53:03.012Z,16.35
2022-10-11T19:55:50.979Z,20.83
2022-10-11T19:58:39.370Z,24.65
2022-10-11T20:01:29.925Z,14.63
2022-10-11T20:04:51.052Z,14.85
2022-10-11T20:07:28.771Z,13.10
2022-10-11T20:10:16.927Z,18.23
2022-10-11T20:13:04.547Z,25.20
2022-10-11T20:15:57.683Z,20.25
2022-10-11T20:18:45.852Z,14.30
2022-10-11T20:21:33.792Z,22.83
2022-10-11T20:24:21.634Z,29.30
2022-10-11T20:27:09.450Z,22.17
2022-10-11T20:29:57.399Z,18.25
2022-10-11T20:32:44.968Z,24.85
2022-10-11T20:35:32.806Z,20.30
2022-10-11T20:38:20.877Z,26.33
2022-10-11T20:41:11.702Z,23.38
2022-10-11T20:44:02.301Z,23.00
2022-10-11T20:46:50.160Z,17.63
2022-10-11T20:49:38.032Z,34.78
2022-10-11T20:52:26.217Z,37.03
2022-10-11T20:55:14.358Z,22.15
2022-10-11T20:58:01.952Z,19.92
2022-10-11T21:00:49.821Z,23.35
2022-10-11T21:03:38.055Z,24.40
2022-10-11T21:06:26.745Z,22.80
2022-10-11T21:09:16.693Z,19.27
2022-10-11T21:12:05.347Z,14.27
2022-10-11T21:14:52.995Z,23.17
2022-10-11T21:17:40.561Z,19.80
2022-10-11T21:20:28.618Z,22.52
2022-10-11T21:23:18.837Z,29.50
2022-10-11T21:26:09.693Z,21.35
2022-10-11T21:28:59.444Z,23.48
2022-10-11T21:31:47.358Z,27.85
2022-10-11T21:34:35.377Z,21.55
2022-10-11T21:37:23.238Z,20.88
2022-10-11T21:40:11.176Z,32.90
2022-10-11T21:42:59.437Z,20.52
2022-10-11T21:45:47.302Z,24.48
2022-10-11T21:48:34.886Z,25.92
2022-10-11T21:51:29.896Z,30.00
2022-10-11T21:54:18.699Z,28.10
2022-10-11T21:57:06.738Z,28.77
2022-10-11T21:59:54.590Z,45.65
2022-10-11T22:02:42.367Z,29.90
2022-10-11T22:05:29.976Z,33.28
2022-10-11T22:08:17.920Z,31.77
2022-10-11T22:11:06.572Z,34.63
2022-10-11T22:13:54.389Z,22.52
2022-10-11T22:16:41.981Z,32.22
2022-10-11T22:19:29.867Z,39.40
2022-10-11T22:22:20.335Z,32.38
2022-10-11T22:25:08.603Z,38.10
2022-10-11T22:27:56.757Z,36.97
2022-10-11T22:30:44.385Z,32.42
2022-10-11T22:33:34.896Z,29.33
2022-10-11T22:36:24.813Z,36.40
2022-10-11T22:39:12.410Z,36.95
2022-10-11T22:42:00.495Z,35.03
2022-10-11T22:44:49.382Z,48.70
2022-10-11T22:47:37.902Z,31.52
2022-10-11T22:50:25.677Z,33.78
2022-10-11T22:53:14.571Z,45.67
2022-10-11T22:56:02.338Z,38.50
2022-10-11T22:58:49.921Z,32.67
2022-10-11T23:01:37.992Z,31.40
2022-10-11T23:04:26.940Z,23.33
2022-10-11T23:07:14.583Z,28.40
2022-10-11T23:10:02.675Z,20.60
2022-10-11T23:12:51.248Z,23.58
2022-10-11T23:15:42.379Z,15.68
2022-10-11T23:18:30.330Z,17.88
2022-10-11T23:21:18.100Z,22.98
2022-10-11T23:24:06.066Z,25.27
2022-10-11T23:26:53.838Z,19.27
2022-10-11T23:29:41.726Z,21.08
2022-10-11T23:32:29.815Z,17.83
2022-10-11T23:35:18.005Z,23.63
2022-10-11T23:38:05.841Z,16.83
2022-10-11T23:40:53.498Z,23.55
2022-10-11T23:43:41.574Z,29.95
2022-10-11T23:46:29.197Z,23.30
2022-10-11T23:49:17.251Z,19.00
2022-10-11T23:52:04.956Z,22.98
2022-10-11T23:54:52.549Z,37.63
2022-10-11T23:57:40.568Z,46.47
